createdAt,value
2022-11-04T00:02:51.621Z,15.01
2022-11-04T00:05:56.894Z,14.97
2022-11-04T00:09:02.233Z,15.02
2022-11-04T00:12:07.492Z,15.05
2022-11-04T00:15:12.837Z,15.04
2022-11-04T00:17:41.035Z,15.03
2022-11-04T00:20:09.324Z,14.95
2022-11-04T00:23:14.649Z,14.9
2022-11-04T00:25:42.913Z,14.93
2022-11-04T00:28:11.169Z,14.84
2022-11-04T00:31:53.497Z,14.8
2022-11-04T00:34:58.776Z,14.87
2022-11-04T00:38:04.119Z,15.05
2022-11-04T00:41:09.415Z,14.96
2022-11-04T00:44:18.835Z,14.89
2022-11-04T00:46:47.087Z,14.87
2022-11-04T00:49:15.321Z,14.78
2022-11-04T00:51:43.598Z,14.74
2022-11-04T00:54:11.831Z,14.69
2022-11-04T00:56:40.041Z,14.73
2022-11-04T00:59:09.114Z,14.91
2022-11-04T01:02:13.660Z,14.78
2022-11-04T01:04:41.843Z,14.75
2022-11-04T01:07:01.934Z,14.83
2022-11-04T01:10:07.272Z,14.81
2022-11-04T01:13:12.547Z,14.74
2022-11-04T01:16:54.912Z,14.76
2022-11-04T01:20:00.247Z,14.78
2022-11-04T01:23:05.997Z,14.8
2022-11-04T01:25:42.365Z,14.84
2022-11-04T01:29:32.975Z,14.8
2022-11-04T01:32:01.227Z,14.74
2022-11-04T01:34:29.506Z,14.76
2022-11-04T01:36:57.741Z,14.76
2022-11-04T01:39:26.042Z,14.88
2022-11-04T01:41:54.376Z,14.93
2022-11-04T01:44:22.576Z,14.98
2022-11-04T01:46:50.805Z,14.99
2022-11-04T01:49:19.093Z,15.08
2022-11-04T01:51:47.345Z,15.12
2022-11-04T01:54:23.812Z,15.16
2022-11-04T02:03:02.760Z,15.13
2022-11-04T02:09:13.433Z,15.04
2022-11-04T02:12:39.451Z,15.06
2022-11-04T02:15:07.709Z,15.11
2022-11-04T02:18:50.095Z,15.09
2022-11-04T02:22:32.525Z,15.09
2022-11-04T02:25:00.801Z,15.03
2022-11-04T02:27:29.027Z,15.01
2022-11-04T02:29:57.317Z,15.05
2022-11-04T02:32:25.662Z,15.12
2022-11-04T02:34:53.859Z,15.09
2022-11-04T02:41:12.676Z,14.93
2022-11-04T02:46:09.233Z,14.81
2022-11-04T02:51:05.753Z,15.03
2022-11-04T02:57:16.428Z,14.84
2022-11-04T03:01:07.053Z,14.8
2022-11-04T03:06:03.632Z,14.91
2022-11-04T03:09:54.136Z,14.93
2022-11-04T03:18:24.876Z,14.95
2022-11-04T03:22:07.285Z,14.94
2022-11-04T03:33:22.669Z,14.81
2022-11-04T03:35:50.924Z,14.84
2022-11-04T03:38:19.192Z,14.87
2022-11-04T03:40:47.444Z,14.91
2022-11-04T03:43:15.770Z,14.94
2022-11-04T03:45:44.041Z,14.92
2022-11-04T03:48:12.303Z,14.93
2022-11-04T03:50:40.524Z,14.92
2022-11-04T03:53:09.079Z,14.66
2022-11-04T03:55:37.205Z,14.89
2022-11-04T03:58:13.533Z,14.89
2022-11-04T04:03:10.093Z,14.86
2022-11-04T04:08:06.888Z,14.85
2022-11-04T04:14:17.261Z,14.81
2022-11-04T04:18:08.175Z,14.84
2022-11-04T04:23:04.403Z,14.83
2022-11-04T04:29:15.044Z,14.73
2022-11-04T04:34:11.603Z,14.73
2022-11-04T04:39:08.232Z,14.74
2022-11-04T04:41:44.561Z,14.63
2022-11-04T04:44:12.881Z,14.63
2022-11-04T04:47:55.252Z,14.62
2022-11-04T04:51:37.680Z,14.6
2022-11-04T04:54:05.875Z,14.63
2022-11-04T04:57:48.298Z,14.64
2022-11-04T05:01:30.835Z,14.68
2022-11-04T05:03:59.044Z,14.64
2022-11-04T05:09:03.723Z,14.6
2022-11-04T05:15:14.409Z,14.56
2022-11-04T05:20:19.091Z,14.49
2022-11-04T05:25:15.642Z,14.46
2022-11-04T05:29:06.306Z,14.54
2022-11-04T05:34:10.938Z,14.56
2022-11-04T05:39:15.697Z,14.57
2022-11-04T05:41:52.124Z,14.57
2022-11-04T05:48:02.816Z,14.52
2022-11-04T05:54:21.666Z,14.55
2022-11-04T05:58:12.275Z,14.56
2022-11-04T06:03:10.648Z,14.49
2022-11-04T06:08:13.635Z,14.52
2022-11-04T06:18:22.990Z,14.42
2022-11-04T06:22:05.363Z,14.42
2022-11-04T06:32:06.643Z,14.4
2022-11-04T06:48:18.553Z,14.3
2022-11-04T06:53:15.113Z,14.28
2022-11-04T06:58:11.646Z,14.3
2022-11-04T07:03:08.339Z,14.31
2022-11-04T07:08:04.671Z,14.31
2022-11-04T07:14:15.491Z,14.39
2022-11-04T07:18:14.153Z,14.38
2022-11-04T07:22:04.721Z,14.37
2022-11-04T07:28:15.370Z,14.39
2022-11-04T07:33:11.931Z,14.41
2022-11-04T07:38:08.747Z,14.42
2022-11-04T07:42:56.832Z,14.42
2022-11-04T07:49:15.671Z,14.44
2022-11-04T07:53:06.579Z,14.46
2022-11-04T07:58:10.954Z,14.48
2022-11-04T08:03:07.975Z,14.47
2022-11-04T08:08:04.085Z,14.48
2022-11-04T08:14:14.742Z,14.42
2022-11-04T08:19:11.267Z,14.46
2022-11-04T08:24:15.979Z,14.49
2022-11-04T08:28:00.999Z,14.49
2022-11-04T08:31:40.789Z,14.52
2022-11-04T08:34:09.050Z,14.29
2022-11-04T08:37:51.465Z,14.54
2022-11-04T08:41:33.834Z,14.56
2022-11-04T08:46:30.411Z,14.55
2022-11-04T08:50:04.696Z,14.57
2022-11-04T09:07:30.725Z,14.71
2022-11-04T09:11:21.274Z,14.74
2022-11-04T09:13:49.501Z,14.77
2022-11-04T09:17:31.950Z,14.72
2022-11-04T09:21:14.388Z,14.74
2022-11-04T09:23:42.598Z,14.73
2022-11-04T09:27:24.989Z,14.73
2022-11-04T09:33:35.900Z,14.78
2022-11-04T09:42:30.968Z,14.89
2022-11-04T09:47:02.954Z,14.88
2022-11-04T09:52:07.614Z,14.88
2022-11-04T09:57:04.182Z,14.9
2022-11-04T09:59:32.505Z,14.9
2022-11-04T10:03:14.848Z,14.83
2022-11-04T10:08:11.365Z,14.87
2022-11-04T10:10:39.644Z,14.88
2022-11-04T10:14:34.334Z,14.89
2022-11-04T10:16:58.518Z,14.93
2022-11-04T10:19:26.786Z,14.98
2022-11-04T10:21:55.004Z,15.02
2022-11-04T10:24:23.321Z,15.05
2022-11-04T10:28:05.724Z,15.09
2022-11-04T10:31:48.117Z,15.14
2022-11-04T10:34:16.605Z,15.15
2022-11-04T10:37:58.799Z,15.17
2022-11-04T10:43:03.495Z,15.2
2022-11-04T10:49:06.047Z,15.2
2022-11-04T10:54:10.773Z,15.13
2022-11-04T10:59:19.991Z,15.2
2022-11-04T11:04:11.993Z,15.17
2022-11-04T11:09:08.459Z,15.17
2022-11-04T11:16:41.497Z,15.15
2022-11-04T11:19:09.711Z,15.19
2022-11-04T11:21:38.013Z,15.21
2022-11-04T11:24:06.284Z,15.18
2022-11-04T11:26:34.531Z,15.13
2022-11-04T11:29:02.764Z,15.09
2022-11-04T11:31:31.098Z,15.14
2022-11-04T11:33:59.327Z,15.17
2022-11-04T11:36:27.603Z,15.2
2022-11-04T11:38:55.856Z,15.2
2022-11-04T11:46:37.078Z,15.23
2022-11-04T12:14:04.381Z,15.65
2022-11-04T12:26:33.896Z,16.62
2022-11-04T12:31:30.474Z,16.87
2022-11-04T12:33:58.721Z,17.04
2022-11-04T12:37:41.093Z,17.2
2022-11-04T12:42:37.668Z,17.31
2022-11-04T12:46:20.043Z,17.25
2022-11-04T12:48:50.778Z,17.31
2022-11-04T12:52:30.702Z,17.32
2022-11-04T12:57:35.447Z,17.25
2022-11-04T13:01:17.838Z,17.19
2022-11-04T13:06:14.372Z,17.16
2022-11-04T13:08:42.627Z,17.11
2022-11-04T13:13:39.166Z,17.12
2022-11-04T13:16:07.417Z,17.09
2022-11-04T13:19:49.827Z,17.1
2022-11-04T13:23:32.195Z,17.11
2022-11-04T13:27:14.644Z,17.17
2022-11-04T13:30:57.027Z,17.18
2022-11-04T13:33:33.457Z,17.17
2022-11-04T13:36:59.578Z,17.11
2022-11-04T13:39:35.940Z,17.08
2022-11-04T13:42:04.315Z,17.04
2022-11-04T13:44:32.509Z,17.02
2022-11-04T13:47:00.770Z,17.01
2022-11-04T13:49:29.022Z,16.96
2022-11-04T13:51:57.290Z,16.95
2022-11-04T13:55:39.717Z,16.92
2022-11-04T13:59:22.166Z,16.87
2022-11-04T14:01:50.431Z,16.86
2022-11-04T14:08:09.186Z,16.57
2022-11-04T14:13:05.738Z,16.74
2022-11-04T14:18:02.294Z,16.69
2022-11-04T14:29:17.681Z,16.73
2022-11-04T14:31:45.947Z,16.71
2022-11-04T14:35:36.551Z,16.76
2022-11-04T14:38:04.795Z,16.75
2022-11-04T14:40:33.085Z,16.7
2022-11-04T14:43:01.336Z,16.66
2022-11-04T14:45:29.606Z,16.61
2022-11-04T14:48:55.626Z,16.6
2022-11-04T14:51:23.883Z,16.57
2022-11-04T14:55:06.272Z,16.54
2022-11-04T15:00:10.987Z,16.43
2022-11-04T15:05:15.754Z,16.4
2022-11-04T15:10:12.241Z,16.34
2022-11-04T15:15:08.800Z,16.12
2022-11-04T15:20:05.352Z,16.37
2022-11-04T15:25:10.062Z,16.34
2022-11-04T15:30:06.591Z,16.33
2022-11-04T15:35:03.139Z,16.31
2022-11-04T15:41:13.813Z,16.31
2022-11-04T15:46:10.305Z,16.21
2022-11-04T15:48:38.573Z,16.04
2022-11-04T15:50:58.755Z,15.98
2022-11-04T15:56:11.674Z,16.04
2022-11-04T16:01:16.398Z,16.04
2022-11-04T16:06:12.842Z,16
2022-11-04T16:11:09.417Z,15.84
2022-11-04T16:16:05.892Z,15.92
2022-11-04T16:24:53.030Z,15.92
2022-11-04T16:28:35.436Z,15.88
2022-11-04T16:31:03.688Z,15.87
2022-11-04T16:34:46.112Z,15.87
2022-11-04T16:38:28.521Z,15.86
2022-11-04T16:40:56.773Z,15.83
2022-11-04T16:43:25.027Z,15.81
2022-11-04T16:45:53.941Z,15.81
2022-11-04T16:58:14.649Z,15.72
2022-11-04T17:08:15.901Z,15.63
2022-11-04T17:10:44.135Z,15.65
2022-11-04T17:14:26.538Z,15.62
2022-11-04T17:18:08.943Z,15.44
2022-11-04T17:20:37.211Z,15.58
2022-11-04T17:24:19.636Z,15.6
2022-11-04T17:28:02.042Z,15.6
2022-11-04T17:30:30.278Z,15.56
2022-11-04T17:34:20.860Z,15.56
2022-11-04T17:38:03.300Z,15.56
2022-11-04T17:44:14.003Z,15.55
2022-11-04T17:49:10.470Z,15.54
2022-11-04T17:54:07.015Z,15.49
2022-11-04T17:59:03.551Z,15.42
2022-11-04T18:04:08.331Z,15.4
2022-11-04T18:09:04.811Z,15.41
2022-11-04T18:14:13.826Z,15.1
2022-11-04T18:19:06.057Z,15.47
2022-11-04T18:24:10.853Z,15.46
2022-11-04T18:29:15.547Z,15.45
2022-11-04T18:34:12.054Z,15.45
2022-11-04T18:39:08.578Z,15.44
2022-11-04T18:44:05.107Z,15.43
2022-11-04T18:50:15.762Z,15.4
2022-11-04T18:55:12.293Z,15.38
2022-11-04T19:00:17.471Z,15.22
2022-11-04T19:05:13.573Z,15.36
2022-11-04T19:10:10.132Z,15.24
2022-11-04T19:15:06.614Z,15.18
2022-11-04T19:18:57.249Z,15.16
2022-11-04T19:21:25.509Z,15.15
2022-11-04T19:23:53.774Z,15.12
2022-11-04T19:26:22.028Z,15.04
2022-11-04T19:28:50.475Z,15.05
2022-11-04T19:31:18.578Z,15.03
2022-11-04T19:35:09.137Z,14.9
2022-11-04T19:37:37.439Z,15.09
2022-11-04T19:40:05.710Z,15.12
2022-11-04T19:42:33.937Z,15.13
2022-11-04T19:45:02.224Z,15.1
2022-11-04T19:47:30.482Z,15.12
2022-11-04T19:49:58.771Z,15.14
2022-11-04T19:52:27.033Z,15.14
2022-11-04T19:56:09.412Z,14.93
2022-11-04T20:02:11.989Z,15.15
2022-11-04T20:07:08.408Z,15.15
2022-11-04T20:12:04.954Z,15.17
2022-11-04T20:18:15.634Z,15.17
2022-11-04T20:23:12.247Z,15.16
2022-11-04T20:28:16.903Z,15.12
2022-11-04T20:33:21.628Z,15.03
2022-11-04T20:37:12.199Z,14.98
2022-11-04T20:42:08.726Z,14.87
2022-11-04T20:47:05.298Z,14.94
2022-11-04T20:58:12.621Z,14.91
2022-11-04T21:03:17.249Z,14.77
2022-11-04T21:07:07.786Z,14.83
2022-11-04T21:17:09.055Z,14.62
2022-11-04T21:22:05.559Z,14.82
2022-11-04T21:28:16.264Z,14.78
2022-11-04T21:33:12.817Z,14.76
2022-11-04T21:38:09.536Z,14.42
2022-11-04T21:43:14.056Z,14.66
2022-11-04T21:48:10.869Z,14.57
2022-11-04T21:53:15.334Z,14.62
2022-11-04T21:57:05.873Z,14.56
2022-11-04T22:02:02.503Z,14.51
2022-11-04T22:08:13.081Z,14.54
2022-11-04T22:13:09.846Z,14.54
2022-11-04T22:18:06.144Z,14.47
2022-11-04T22:24:08.660Z,14.31
2022-11-04T22:29:05.155Z,14.4
2022-11-04T22:35:15.828Z,14.37
2022-11-04T22:40:12.344Z,14.39
2022-11-04T22:45:12.523Z,14.24
2022-11-04T22:50:05.408Z,14.61
2022-11-04T23:00:06.685Z,14.65
2022-11-04T23:06:08.150Z,14.66
2022-11-04T23:16:10.437Z,14.75
2022-11-04T23:18:38.669Z,14.8
2022-11-04T23:20:58.761Z,14.82
2022-11-04T23:27:09.440Z,14.7
2022-11-04T23:32:05.981Z,14.86
2022-11-04T23:37:02.498Z,14.85
2022-11-04T23:43:13.469Z,14.86
2022-11-04T23:45:49.619Z,14.84
2022-11-04T23:48:17.916Z,14.85
2022-11-04T23:52:00.276Z,14.84
2022-11-04T23:55:42.689Z,14.83
2022-11-04T23:58:10.964Z,14.76
